createdAt,value
2018-04-11T00:00:03.547Z,21.71
2018-04-11T00:01:03.540Z,21.70
2018-04-11T00:02:03.532Z,21.75
2018-04-11T00:03:03.541Z,21.75
2018-04-11T00:04:03.540Z,21.75
2018-04-11T00:05:03.530Z,21.75
2018-04-11T00:06:03.531Z,21.66
2018-04-11T00:07:03.520Z,21.67
2018-04-11T00:08:03.512Z,21.71
2018-04-11T00:09:03.500Z,21.74
2018-04-11T00:10:03.497Z,21.68
2018-04-11T00:11:03.496Z,21.75
2018-04-11T00:12:03.492Z,21.68
2018-04-11T00:13:03.487Z,21.68
2018-04-11T00:14:03.488Z,21.70
2018-04-11T00:15:03.491Z,21.73
2018-04-11T00:16:03.478Z,21.70
2018-04-11T00:17:03.472Z,21.68
2018-04-11T00:18:03.459Z,21.74
2018-04-11T00:19:03.464Z,21.75
2018-04-11T00:20:03.465Z,21.71
2018-04-11T00:21:03.446Z,21.75
2018-04-11T00:22:03.449Z,21.66
2018-04-11T00:23:03.461Z,21.71
2018-04-11T00:24:03.447Z,21.64
2018-04-11T00:25:03.442Z,21.74
2018-04-11T00:26:03.436Z,21.66
2018-04-11T00:27:03.427Z,21.74
2018-04-11T00:28:03.417Z,21.73
2018-04-11T00:29:03.426Z,21.71
2018-04-11T00:30:03.406Z,21.63
2018-04-11T00:31:03.407Z,21.61
2018-04-11T00:32:03.399Z,21.71
2018-04-11T00:33:03.388Z,21.73
2018-04-11T00:34:03.397Z,21.67
2018-04-11T00:35:03.386Z,21.70
2018-04-11T00:36:03.380Z,21.71
2018-04-11T00:37:03.381Z,21.66
2018-04-11T00:38:03.367Z,21.64
2018-04-11T00:39:03.355Z,21.73
2018-04-11T00:40:03.355Z,21.73
2018-04-11T00:41:03.360Z,21.71
2018-04-11T00:42:03.351Z,21.73
2018-04-11T00:43:03.341Z,21.68
2018-04-11T00:44:03.336Z,21.68
2018-04-11T00:45:03.337Z,21.66
2018-04-11T00:46:03.330Z,21.67
2018-04-11T00:47:03.319Z,21.74
2018-04-11T00:48:03.342Z,21.68
2018-04-11T00:49:03.322Z,21.63
2018-04-11T00:50:03.307Z,21.70
2018-04-11T00:51:03.308Z,21.63
2018-04-11T00:52:03.292Z,21.71
2018-04-11T00:53:03.311Z,21.66
2018-04-11T00:54:03.302Z,21.70
2018-04-11T00:55:03.308Z,21.64
2018-04-11T00:56:03.287Z,21.68
2018-04-11T00:57:03.276Z,21.66
2018-04-11T00:58:03.281Z,21.68
2018-04-11T00:59:03.274Z,21.63
2018-04-11T01:00:03.268Z,21.59
2018-04-11T01:01:03.264Z,21.68
2018-04-11T01:02:03.255Z,21.68
2018-04-11T01:03:03.254Z,21.68
2018-04-11T01:04:03.240Z,21.61
2018-04-11T01:05:03.241Z,21.67
2018-04-11T01:06:03.242Z,21.71
2018-04-11T01:07:03.235Z,21.71
2018-04-11T01:08:03.219Z,21.67
2018-04-11T01:09:03.226Z,21.70
2018-04-11T01:10:03.208Z,21.64
2018-04-11T01:11:03.211Z,21.64
2018-04-11T01:12:03.213Z,21.68
2018-04-11T01:13:03.203Z,21.64
2018-04-11T01:14:03.208Z,21.68
2018-04-11T01:15:03.193Z,21.49
2018-04-11T01:16:03.189Z,21.66
2018-04-11T01:17:03.191Z,21.73
2018-04-11T01:18:03.179Z,21.68
2018-04-11T01:19:03.209Z,21.67
2018-04-11T01:20:03.178Z,21.61
2018-04-11T01:21:03.170Z,21.63
2018-04-11T01:22:03.158Z,21.67
2018-04-11T01:23:03.153Z,21.68
2018-04-11T01:24:03.153Z,21.63
2018-04-11T01:25:03.141Z,21.61
2018-04-11T01:26:03.135Z,21.66
2018-04-11T01:27:03.139Z,21.64
2018-04-11T01:28:03.143Z,21.68
2018-04-11T01:29:03.120Z,21.67
2018-04-11T01:30:03.130Z,21.73
2018-04-11T01:31:03.115Z,21.67
2018-04-11T01:32:03.108Z,21.58
2018-04-11T01:33:03.108Z,21.67
2018-04-11T01:34:03.108Z,21.64
2018-04-11T01:35:03.094Z,21.66
2018-04-11T01:36:03.085Z,21.70
2018-04-11T01:37:03.083Z,21.71
2018-04-11T01:38:03.095Z,21.61
2018-04-11T01:39:03.072Z,21.68
2018-04-11T01:40:03.083Z,21.66
2018-04-11T01:41:03.063Z,21.67
2018-04-11T01:42:03.062Z,21.66
2018-04-11T01:43:03.054Z,21.63
2018-04-11T01:44:03.063Z,21.67
2018-04-11T01:45:03.062Z,21.61
2018-04-11T01:46:03.042Z,21.64
2018-04-11T01:47:03.049Z,21.67
2018-04-11T01:48:03.034Z,21.66
2018-04-11T01:49:03.025Z,21.59
2018-04-11T01:50:03.027Z,21.63
2018-04-11T01:51:03.032Z,21.59
2018-04-11T01:52:03.011Z,21.63
2018-04-11T01:53:03.015Z,21.58
2018-04-11T01:54:03.010Z,21.61
2018-04-11T01:55:03.003Z,21.63
2018-04-11T01:56:02.990Z,21.59
2018-04-11T01:57:02.988Z,21.59
2018-04-11T01:58:03.010Z,21.56
2018-04-11T01:59:02.976Z,21.61
2018-04-11T02:00:02.975Z,21.59
2018-04-11T02:01:02.971Z,21.64
2018-04-11T02:02:02.960Z,21.64
2018-04-11T02:03:02.964Z,21.58
2018-04-11T02:04:02.970Z,21.61
2018-04-11T02:05:02.955Z,21.55
2018-04-11T02:06:02.945Z,21.63
2018-04-11T02:07:02.944Z,21.67
2018-04-11T02:08:02.947Z,21.67
2018-04-11T02:09:02.936Z,21.55
2018-04-11T02:10:02.917Z,21.67
2018-04-11T02:11:02.927Z,21.59
2018-04-11T02:12:02.915Z,21.61
2018-04-11T02:13:02.928Z,21.61
2018-04-11T02:14:02.910Z,21.63
2018-04-11T02:15:02.900Z,21.64
2018-04-11T02:16:02.903Z,21.56
2018-04-11T02:17:02.893Z,21.59
2018-04-11T02:18:02.890Z,21.58
2018-04-11T02:19:02.890Z,21.58
2018-04-11T02:20:02.874Z,21.61
2018-04-11T02:21:02.875Z,21.55
2018-04-11T02:22:02.890Z,21.56
2018-04-11T02:23:02.891Z,21.58
2018-04-11T02:24:02.855Z,21.63
2018-04-11T02:25:02.865Z,21.61
2018-04-11T02:26:02.860Z,21.59
2018-04-11T02:27:02.845Z,21.61
2018-04-11T02:28:02.836Z,21.58
2018-04-11T02:29:02.840Z,21.55
2018-04-11T02:30:02.831Z,21.52
2018-04-11T02:31:02.832Z,21.58
2018-04-11T02:32:02.883Z,21.53
2018-04-11T02:33:02.839Z,21.58
2018-04-11T02:34:02.819Z,21.61
2018-04-11T02:35:02.811Z,21.58
2018-04-11T02:36:02.814Z,21.56
2018-04-11T02:37:02.811Z,21.61
2018-04-11T02:38:02.800Z,21.61
2018-04-11T02:39:02.787Z,21.56
2018-04-11T02:40:02.782Z,21.63
2018-04-11T02:41:02.782Z,21.56
2018-04-11T02:42:02.779Z,21.59
2018-04-11T02:43:02.773Z,21.55
2018-04-11T02:44:02.761Z,21.56
2018-04-11T02:45:02.767Z,21.58
2018-04-11T02:46:02.770Z,21.59
2018-04-11T02:47:02.752Z,21.63
2018-04-11T02:48:02.749Z,21.56
2018-04-11T02:49:02.750Z,21.58
2018-04-11T02:50:02.741Z,21.61
2018-04-11T02:51:02.739Z,21.53
2018-04-11T02:52:02.746Z,21.63
2018-04-11T02:53:02.726Z,21.58
2018-04-11T02:54:02.725Z,21.55
2018-04-11T02:55:02.709Z,21.59
2018-04-11T02:56:02.713Z,21.59
2018-04-11T02:57:02.714Z,21.53
2018-04-11T02:58:02.700Z,21.51
2018-04-11T02:59:02.692Z,21.63
2018-04-11T03:00:02.711Z,21.59
2018-04-11T03:01:02.691Z,21.59
2018-04-11T03:02:02.688Z,21.53
2018-04-11T03:03:02.681Z,21.52
2018-04-11T03:04:02.674Z,21.61
2018-04-11T03:05:02.671Z,21.58
2018-04-11T03:06:02.663Z,21.58
2018-04-11T03:07:02.664Z,21.56
2018-04-11T03:08:02.652Z,21.55
2018-04-11T03:09:02.642Z,21.52
2018-04-11T03:10:02.645Z,21.52
2018-04-11T03:11:02.637Z,21.52
2018-04-11T03:12:02.622Z,21.55
2018-04-11T03:13:02.628Z,21.55
2018-04-11T03:14:02.630Z,21.52
2018-04-11T03:15:02.616Z,21.55
2018-04-11T03:16:02.621Z,21.59
2018-04-11T03:17:02.605Z,21.56
2018-04-11T03:18:02.608Z,21.52
2018-04-11T03:19:02.601Z,21.51
2018-04-11T03:20:02.605Z,21.52
2018-04-11T03:21:02.589Z,21.53
2018-04-11T03:22:02.595Z,21.58
2018-04-11T03:23:02.581Z,21.52
2018-04-11T03:24:02.585Z,21.52
2018-04-11T03:25:02.580Z,21.55
2018-04-11T03:26:02.569Z,21.58
2018-04-11T03:27:02.559Z,21.49
2018-04-11T03:28:02.551Z,21.52
2018-04-11T03:29:02.548Z,21.53
2018-04-11T03:30:02.555Z,21.56
2018-04-11T03:31:02.559Z,21.55
2018-04-11T03:32:02.543Z,21.56
2018-04-11T03:33:02.534Z,21.55
2018-04-11T03:34:02.521Z,21.48
2018-04-11T03:35:02.516Z,21.45
2018-04-11T03:36:02.519Z,21.53
2018-04-11T03:37:02.509Z,21.55
2018-04-11T03:38:02.525Z,21.55
2018-04-11T03:39:02.506Z,21.52
2018-04-11T03:40:02.506Z,21.56
2018-04-11T03:41:02.500Z,21.52
2018-04-11T03:42:02.502Z,21.56
2018-04-11T03:43:02.501Z,21.53
2018-04-11T03:44:02.474Z,21.58
2018-04-11T03:45:02.487Z,21.53
2018-04-11T03:46:02.467Z,21.61
2018-04-11T03:47:02.454Z,21.49
2018-04-11T03:48:02.462Z,21.52
2018-04-11T03:49:02.456Z,21.49
2018-04-11T03:50:02.451Z,21.53
2018-04-11T03:51:02.464Z,21.48
2018-04-11T03:52:02.450Z,21.49
2018-04-11T03:53:02.430Z,21.53
2018-04-11T03:54:02.442Z,21.58
2018-04-11T03:55:02.437Z,21.49
2018-04-11T03:56:02.419Z,21.48
2018-04-11T03:57:02.421Z,21.49
2018-04-11T03:58:02.414Z,21.53
2018-04-11T03:59:02.409Z,21.52
2018-04-11T04:00:02.402Z,21.58
2018-04-11T04:01:02.397Z,21.48
2018-04-11T04:02:02.408Z,21.48
2018-04-11T04:03:02.385Z,21.53
2018-04-11T04:04:02.385Z,21.56
2018-04-11T04:05:02.377Z,21.49
2018-04-11T04:06:02.369Z,21.52
2018-04-11T04:07:02.363Z,21.52
2018-04-11T04:08:02.360Z,21.55
2018-04-11T04:09:02.360Z,21.51
2018-04-11T04:10:02.355Z,21.56
2018-04-11T04:11:02.361Z,21.48
2018-04-11T04:12:02.354Z,21.46
2018-04-11T04:13:02.345Z,21.42
2018-04-11T04:14:02.340Z,21.40
2018-04-11T04:15:02.331Z,21.46
2018-04-11T04:16:02.337Z,21.46
2018-04-11T04:17:02.326Z,21.46
2018-04-11T04:18:02.318Z,21.48
2018-04-11T04:19:02.311Z,21.45
2018-04-11T04:20:02.299Z,21.56
2018-04-11T04:21:02.315Z,21.56
2018-04-11T04:22:02.299Z,21.52
2018-04-11T04:23:02.298Z,21.48
2018-04-11T04:24:02.285Z,21.46
2018-04-11T04:25:02.300Z,21.49
2018-04-11T04:26:02.277Z,21.49
2018-04-11T04:27:02.276Z,21.51
2018-04-11T04:28:02.280Z,21.55
2018-04-11T04:29:02.272Z,21.58
2018-04-11T04:30:02.255Z,21.56
2018-04-11T04:31:02.256Z,21.48
2018-04-11T04:32:02.252Z,21.51
2018-04-11T04:33:02.244Z,21.55
2018-04-11T04:34:02.230Z,21.56
2018-04-11T04:35:02.244Z,21.43
2018-04-11T04:36:02.224Z,21.49
2018-04-11T04:37:02.226Z,21.48
2018-04-11T04:38:02.225Z,21.45
2018-04-11T04:39:02.231Z,21.53
2018-04-11T04:40:02.204Z,21.51
2018-04-11T04:41:02.200Z,21.46
2018-04-11T04:42:02.211Z,21.53
2018-04-11T04:43:02.208Z,21.42
2018-04-11T04:44:02.189Z,21.49
2018-04-11T04:45:02.206Z,21.46
2018-04-11T04:46:02.181Z,21.52
2018-04-11T04:47:02.178Z,21.46
2018-04-11T04:48:02.176Z,21.58
2018-04-11T04:49:02.160Z,21.52
2018-04-11T04:50:02.181Z,21.55
2018-04-11T04:51:02.155Z,21.55
2018-04-11T04:52:02.159Z,21.53
2018-04-11T04:53:02.149Z,21.46
2018-04-11T04:54:02.148Z,21.48
2018-04-11T04:55:02.134Z,21.56
2018-04-11T04:56:02.133Z,21.43
2018-04-11T04:57:02.125Z,21.43
2018-04-11T04:58:02.133Z,21.52
2018-04-11T04:59:02.110Z,21.48
2018-04-11T05:00:02.113Z,21.45
2018-04-11T05:01:02.105Z,21.45
2018-04-11T05:02:02.105Z,21.43
2018-04-11T05:03:02.106Z,21.45
2018-04-11T05:04:02.098Z,21.46
2018-04-11T05:05:02.100Z,21.45
2018-04-11T05:06:02.076Z,21.48
2018-04-11T05:07:02.091Z,21.51
2018-04-11T05:08:02.072Z,21.48
2018-04-11T05:09:02.089Z,21.46
2018-04-11T05:10:02.063Z,21.48
2018-04-11T05:11:02.063Z,21.48
2018-04-11T05:12:02.052Z,21.42
2018-04-11T05:13:02.053Z,21.43
2018-04-11T05:14:02.049Z,21.38
2018-04-11T05:15:02.036Z,21.46
2018-04-11T05:16:02.031Z,21.48
2018-04-11T05:17:02.041Z,21.43
2018-04-11T05:18:02.045Z,21.49
2018-04-11T05:19:02.030Z,21.43
2018-04-11T05:20:02.019Z,21.46
2018-04-11T05:21:02.028Z,21.46
2018-04-11T05:22:02.017Z,21.43
2018-04-11T05:23:01.996Z,21.42
2018-04-11T05:24:02.002Z,21.52
2018-04-11T05:25:01.992Z,21.42
2018-04-11T05:26:02.003Z,21.45
2018-04-11T05:27:01.983Z,21.55
2018-04-11T05:28:01.989Z,21.45
2018-04-11T05:29:01.984Z,21.46
2018-04-11T05:30:01.971Z,21.46
2018-04-11T05:31:01.961Z,21.48
2018-04-11T05:32:01.947Z,21.51
2018-04-11T05:33:01.951Z,21.46
2018-04-11T05:34:01.966Z,21.48
2018-04-11T05:35:01.950Z,21.45
2018-04-11T05:36:01.936Z,21.46
2018-04-11T05:37:01.945Z,21.48
2018-04-11T05:38:01.936Z,21.49
2018-04-11T05:39:01.924Z,21.48
2018-04-11T05:40:01.954Z,21.49
2018-04-11T05:41:01.925Z,21.46
2018-04-11T05:42:01.909Z,21.45
2018-04-11T05:43:01.898Z,21.49
2018-04-11T05:44:01.895Z,21.43
2018-04-11T05:45:01.899Z,21.43
2018-04-11T05:46:01.893Z,21.46
2018-04-11T05:47:01.905Z,21.43
2018-04-11T05:48:01.945Z,21.43
2018-04-11T05:49:01.886Z,21.40
2018-04-11T05:50:01.875Z,21.46
2018-04-11T05:51:01.875Z,21.43
2018-04-11T05:52:01.893Z,21.38
2018-04-11T05:53:01.923Z,21.45
2018-04-11T05:54:01.853Z,21.45
2018-04-11T05:55:01.837Z,21.49
2018-04-11T05:56:01.840Z,21.53
2018-04-11T05:57:01.838Z,21.46
2018-04-11T05:58:01.835Z,21.42
2018-04-11T05:59:01.835Z,21.43
2018-04-11T06:00:01.819Z,21.42
2018-04-11T06:01:01.816Z,21.45
2018-04-11T06:02:01.826Z,21.51
2018-04-11T06:03:01.805Z,21.45
2018-04-11T06:04:02.537Z,21.48
2018-04-11T06:05:02.509Z,21.42
2018-04-11T06:06:01.896Z,21.53
2018-04-11T06:07:01.822Z,21.52
2018-04-11T06:08:01.782Z,21.51
2018-04-11T06:09:01.806Z,21.56
2018-04-11T06:10:01.830Z,21.56
2018-04-11T06:11:01.786Z,21.46
2018-04-11T06:12:01.780Z,21.55
2018-04-11T06:13:01.775Z,21.48
2018-04-11T06:14:01.757Z,21.43
2018-04-11T06:15:01.752Z,21.48
2018-04-11T06:16:01.763Z,21.43
2018-04-11T06:17:01.776Z,21.49
2018-04-11T06:18:01.745Z,21.46
2018-04-11T06:19:01.739Z,21.46
2018-04-11T06:20:01.742Z,21.45
2018-04-11T06:21:01.756Z,21.49
2018-04-11T06:22:01.717Z,21.52
2018-04-11T06:23:01.755Z,21.51
2018-04-11T06:24:01.711Z,21.46
2018-04-11T06:25:01.699Z,21.49
2018-04-11T06:26:01.721Z,21.46
2018-04-11T06:27:01.702Z,21.46
2018-04-11T06:28:01.700Z,21.43
2018-04-11T06:29:01.689Z,21.45
2018-04-11T06:30:01.679Z,21.48
2018-04-11T06:31:01.687Z,21.48
2018-04-11T06:32:01.669Z,21.46
2018-04-11T06:33:01.669Z,21.46
2018-04-11T06:34:01.654Z,21.48
2018-04-11T06:35:01.663Z,21.52
2018-04-11T06:36:01.647Z,21.51
2018-04-11T06:37:01.645Z,21.43
2018-04-11T06:38:01.634Z,21.46
2018-04-11T06:39:01.688Z,21.48
2018-04-11T06:40:01.623Z,21.56
2018-04-11T06:41:01.623Z,21.46
2018-04-11T06:42:01.667Z,21.51
2018-04-11T06:43:01.616Z,21.45
2018-04-11T06:44:01.606Z,21.49
2018-04-11T06:45:01.605Z,21.49
2018-04-11T06:46:01.599Z,21.49
2018-04-11T06:47:01.605Z,21.46
2018-04-11T06:48:01.589Z,21.58
2018-04-11T06:49:01.575Z,21.43
2018-04-11T06:50:01.580Z,21.58
2018-04-11T06:51:01.570Z,21.45
2018-04-11T06:52:01.566Z,21.46
2018-04-11T06:53:01.561Z,21.49
2018-04-11T06:54:01.565Z,21.56
2018-04-11T06:55:01.550Z,21.46
2018-04-11T06:56:01.551Z,21.43
2018-04-11T06:57:01.541Z,21.48
2018-04-11T06:58:01.544Z,21.43
2018-04-11T06:59:01.542Z,21.48
2018-04-11T07:00:01.541Z,21.43
2018-04-11T07:01:01.525Z,21.42
2018-04-11T07:02:01.516Z,21.48
2018-04-11T07:03:01.510Z,21.46
2018-04-11T07:04:01.509Z,21.43
2018-04-11T07:05:01.506Z,21.46
2018-04-11T07:06:01.502Z,21.45
2018-04-11T07:07:01.496Z,21.51
2018-04-11T07:08:01.504Z,21.48
2018-04-11T07:09:01.493Z,21.46
2018-04-11T07:10:01.484Z,21.46
2018-04-11T07:11:01.502Z,21.46
2018-04-11T07:12:01.472Z,21.45
2018-04-11T07:13:01.469Z,21.43
2018-04-11T07:14:01.461Z,21.40
2018-04-11T07:15:01.452Z,21.45
2018-04-11T07:16:01.461Z,21.48
2018-04-11T07:17:01.455Z,21.43
2018-04-11T07:18:01.450Z,21.46
2018-04-11T07:19:01.431Z,21.48
2018-04-11T07:20:01.440Z,21.46
2018-04-11T07:21:01.431Z,21.48
2018-04-11T07:22:01.435Z,21.43
2018-04-11T07:23:01.419Z,21.42
2018-04-11T07:24:01.416Z,21.46
2018-04-11T07:25:01.411Z,21.43
2018-04-11T07:26:01.432Z,21.49
2018-04-11T07:27:01.436Z,21.48
2018-04-11T07:28:01.409Z,21.43
2018-04-11T07:29:01.391Z,21.46
2018-04-11T07:30:01.394Z,21.46
2018-04-11T07:31:01.390Z,21.49
2018-04-11T07:32:01.366Z,21.43
2018-04-11T07:33:01.370Z,21.43
2018-04-11T07:34:01.369Z,21.46
2018-04-11T07:35:01.364Z,21.53
2018-04-11T07:36:01.360Z,21.40
2018-04-11T07:37:01.342Z,21.51
2018-04-11T07:38:01.351Z,21.43
2018-04-11T07:39:01.344Z,21.48
2018-04-11T07:40:01.390Z,21.43
2018-04-11T07:41:01.345Z,21.46
2018-04-11T07:42:01.324Z,21.43
2018-04-11T07:43:01.340Z,21.51
2018-04-11T07:44:01.315Z,21.43
2018-04-11T07:45:01.316Z,21.46
2018-04-11T07:46:01.384Z,21.43
2018-04-11T07:47:01.309Z,21.46
2018-04-11T07:48:01.299Z,21.46
2018-04-11T07:49:01.307Z,21.42
2018-04-11T07:50:01.289Z,21.45
2018-04-11T07:51:01.289Z,21.48
2018-04-11T07:52:01.270Z,21.48
2018-04-11T07:53:01.295Z,21.42
2018-04-11T07:54:01.257Z,21.42
2018-04-11T07:55:01.275Z,21.48
2018-04-11T07:56:01.260Z,21.42
2018-04-11T07:57:01.255Z,21.43
2018-04-11T07:58:01.257Z,21.38
2018-04-11T07:59:01.240Z,21.43
2018-04-11T08:00:01.241Z,21.42
2018-04-11T08:01:01.231Z,21.46
2018-04-11T08:02:01.233Z,21.46
2018-04-11T08:03:01.224Z,21.48
2018-04-11T08:04:01.225Z,21.42
2018-04-11T08:05:01.209Z,21.40
2018-04-11T08:06:01.215Z,21.42
2018-04-11T08:07:01.200Z,21.43
2018-04-11T08:08:01.206Z,21.49
2018-04-11T08:09:01.191Z,21.46
2018-04-11T08:10:01.244Z,21.42
2018-04-11T08:11:01.196Z,21.51
2018-04-11T08:12:01.178Z,21.52
2018-04-11T08:13:01.178Z,21.42
2018-04-11T08:14:01.187Z,21.42
2018-04-11T08:15:01.170Z,21.45
2018-04-11T08:16:01.156Z,21.49
2018-04-11T08:17:01.158Z,21.46
2018-04-11T08:18:01.183Z,21.42
2018-04-11T08:19:01.142Z,21.45
2018-04-11T08:20:01.144Z,21.48
2018-04-11T08:21:01.139Z,21.49
2018-04-11T08:22:01.132Z,21.48
2018-04-11T08:23:01.131Z,21.43
2018-04-11T08:24:01.132Z,21.49
2018-04-11T08:25:01.113Z,21.43
2018-04-11T08:26:01.114Z,21.43
2018-04-11T08:27:01.112Z,21.40
2018-04-11T08:28:01.081Z,21.48
2018-04-11T08:29:01.099Z,21.46
2018-04-11T08:30:01.082Z,21.46
2018-04-11T08:31:01.096Z,21.38
2018-04-11T08:32:01.085Z,21.42
2018-04-11T08:33:01.071Z,21.48
2018-04-11T08:34:01.076Z,21.42
2018-04-11T08:35:01.081Z,21.43
2018-04-11T08:36:01.078Z,21.46
2018-04-11T08:37:01.057Z,21.45
2018-04-11T08:38:01.057Z,21.51
2018-04-11T08:39:01.055Z,21.42
2018-04-11T08:40:01.040Z,21.40
2018-04-11T08:41:01.043Z,21.45
2018-04-11T08:42:01.031Z,21.42
2018-04-11T08:43:01.032Z,21.40
2018-04-11T08:44:01.037Z,21.46
2018-04-11T08:45:01.023Z,21.37
2018-04-11T08:46:01.012Z,21.45
2018-04-11T08:47:01.005Z,21.46
2018-04-11T08:48:01.000Z,21.40
2018-04-11T08:49:01.001Z,21.42
2018-04-11T08:50:00.992Z,21.38
2018-04-11T08:51:00.985Z,21.45
2018-04-11T08:52:00.987Z,21.42
2018-04-11T08:53:00.983Z,21.42
2018-04-11T08:54:00.980Z,21.45
2018-04-11T08:55:00.977Z,21.43
2018-04-11T08:56:00.967Z,21.48
2018-04-11T08:57:00.966Z,21.51
2018-04-11T08:58:00.961Z,21.49
2018-04-11T08:59:00.947Z,21.46
2018-04-11T09:00:00.956Z,21.48
2018-04-11T09:01:00.941Z,21.42
2018-04-11T09:02:00.938Z,21.42
2018-04-11T09:03:00.968Z,21.40
2018-04-11T09:04:00.921Z,21.48
2018-04-11T09:05:00.923Z,21.48
2018-04-11T09:06:00.916Z,21.46
2018-04-11T09:07:00.923Z,21.49
2018-04-11T09:08:00.902Z,21.48
2018-04-11T09:09:00.896Z,21.42
2018-04-11T09:10:00.902Z,21.37
2018-04-11T09:11:00.903Z,21.46
2018-04-11T09:12:00.884Z,21.48
2018-04-11T09:13:00.878Z,21.43
2018-04-11T09:14:00.875Z,21.45
2018-04-11T09:15:00.869Z,21.51
2018-04-11T09:16:00.867Z,21.45
2018-04-11T09:17:00.867Z,21.48
2018-04-11T09:18:00.861Z,21.38
2018-04-11T09:19:00.852Z,21.38
2018-04-11T09:20:00.847Z,21.43
2018-04-11T09:21:00.838Z,21.45
2018-04-11T09:22:00.832Z,21.45
2018-04-11T09:23:00.841Z,21.46
2018-04-11T09:24:00.833Z,21.43
2018-04-11T09:25:00.838Z,21.45
2018-04-11T09:26:00.836Z,21.42
2018-04-11T09:27:00.823Z,21.38
2018-04-11T09:28:00.809Z,21.42
2018-04-11T09:29:00.806Z,21.42
2018-04-11T09:30:00.819Z,21.42
2018-04-11T09:31:00.789Z,21.52
2018-04-11T09:32:00.799Z,21.45
2018-04-11T09:33:00.842Z,21.48
2018-04-11T09:34:00.796Z,21.51
2018-04-11T09:35:00.789Z,21.36
2018-04-11T09:36:00.769Z,21.48
2018-04-11T09:37:00.764Z,21.42
2018-04-11T09:38:00.757Z,21.40
2018-04-11T09:39:00.762Z,21.42
2018-04-11T09:40:00.752Z,21.40
2018-04-11T09:41:00.752Z,21.43
2018-04-11T09:42:00.753Z,21.48
2018-04-11T09:43:00.744Z,21.46
2018-04-11T09:44:00.735Z,21.42
2018-04-11T09:45:00.723Z,21.42
2018-04-11T09:46:00.731Z,21.45
2018-04-11T09:47:00.723Z,21.43
2018-04-11T09:48:00.729Z,21.48
2018-04-11T09:49:00.708Z,21.42
2018-04-11T09:50:00.714Z,21.42
2018-04-11T09:51:00.703Z,21.40
2018-04-11T09:52:00.711Z,21.51
2018-04-11T09:53:00.683Z,21.45
2018-04-11T09:54:00.682Z,21.42
2018-04-11T09:55:00.672Z,21.46
2018-04-11T09:56:00.668Z,21.46
2018-04-11T09:57:00.665Z,21.49
2018-04-11T09:58:00.666Z,21.43
2018-04-11T09:59:00.654Z,21.52
2018-04-11T10:00:00.648Z,21.48
2018-04-11T10:01:00.653Z,21.45
2018-04-11T10:02:00.649Z,21.43
2018-04-11T10:03:00.640Z,21.45
2018-04-11T10:04:00.612Z,21.43
2018-04-11T10:05:00.642Z,21.48
2018-04-11T10:06:00.625Z,21.42
2018-04-11T10:07:00.622Z,21.43
2018-04-11T10:08:00.629Z,21.40
2018-04-11T10:09:00.599Z,21.46
2018-04-11T10:10:00.626Z,21.43
2018-04-11T10:11:00.638Z,21.43
2018-04-11T10:12:00.613Z,21.36
2018-04-11T10:13:00.619Z,21.42
2018-04-11T10:14:00.580Z,21.40
2018-04-11T10:15:00.596Z,21.36
2018-04-11T10:16:00.578Z,21.36
2018-04-11T10:17:00.570Z,21.37
2018-04-11T10:18:00.568Z,21.38
2018-04-11T10:19:00.557Z,21.46
2018-04-11T10:20:00.553Z,21.48
2018-04-11T10:21:00.558Z,21.42
2018-04-11T10:22:00.533Z,21.43
2018-04-11T10:23:00.549Z,21.43
2018-04-11T10:24:00.541Z,21.45
2018-04-11T10:25:00.531Z,21.48
2018-04-11T10:26:00.530Z,21.43
2018-04-11T10:27:00.515Z,21.38
2018-04-11T10:28:00.509Z,21.43
2018-04-11T10:29:00.499Z,21.43
2018-04-11T10:30:00.493Z,21.43
2018-04-11T10:31:00.533Z,21.48
2018-04-11T10:32:00.524Z,21.43
2018-04-11T10:33:00.506Z,21.43
2018-04-11T10:34:00.490Z,21.45
2018-04-11T10:35:00.488Z,21.43
2018-04-11T10:36:00.473Z,21.43
2018-04-11T10:37:00.472Z,21.40
2018-04-11T10:38:00.462Z,21.48
2018-04-11T10:39:00.461Z,21.33
2018-04-11T10:40:00.450Z,21.45
2018-04-11T10:41:00.451Z,21.42
2018-04-11T10:42:00.441Z,21.42
2018-04-11T10:43:00.462Z,21.33
2018-04-11T10:44:00.455Z,21.43
2018-04-11T10:45:00.437Z,21.45
2018-04-11T10:46:00.423Z,21.46
2018-04-11T10:47:00.442Z,21.43
2018-04-11T10:48:00.444Z,21.38
2018-04-11T10:49:00.433Z,21.36
2018-04-11T10:50:00.408Z,21.36
2018-04-11T10:51:00.399Z,21.37
2018-04-11T10:52:00.403Z,21.46
2018-04-11T10:53:00.390Z,21.38
2018-04-11T10:54:00.391Z,21.45
2018-04-11T10:55:00.385Z,21.42
2018-04-11T10:56:00.396Z,21.36
2018-04-11T10:57:00.389Z,21.40
2018-04-11T10:58:00.379Z,21.40
2018-04-11T10:59:00.377Z,21.42
2018-04-11T11:00:00.365Z,21.40
2018-04-11T11:01:00.354Z,21.43
2018-04-11T11:02:00.350Z,21.42
2018-04-11T11:03:00.354Z,21.42
2018-04-11T11:04:00.334Z,21.42
2018-04-11T11:05:00.344Z,21.40
2018-04-11T11:06:00.330Z,21.36
2018-04-11T11:07:00.364Z,21.33
2018-04-11T11:08:00.322Z,21.36
2018-04-11T11:09:00.315Z,21.38
2018-04-11T11:10:00.329Z,21.36
2018-04-11T11:11:00.294Z,21.36
2018-04-11T11:12:00.305Z,21.43
2018-04-11T11:13:00.322Z,21.37
2018-04-11T11:14:00.290Z,21.43
2018-04-11T11:15:00.284Z,21.45
2018-04-11T11:16:00.289Z,21.43
2018-04-11T11:17:00.281Z,21.40
2018-04-11T11:18:00.269Z,21.40
2018-04-11T11:19:00.272Z,21.45
2018-04-11T11:20:00.263Z,21.43
2018-04-11T11:21:00.256Z,21.42
2018-04-11T11:22:00.256Z,21.46
2018-04-11T11:23:00.241Z,21.43
2018-04-11T11:24:00.251Z,21.43
2018-04-11T11:25:00.235Z,21.40
2018-04-11T11:26:00.235Z,21.42
2018-04-11T11:27:00.229Z,21.40
2018-04-11T11:28:00.229Z,21.37
2018-04-11T11:29:00.221Z,21.42
2018-04-11T11:30:00.211Z,21.38
2018-04-11T11:31:00.202Z,21.43
2018-04-11T11:32:00.196Z,21.40
2018-04-11T11:33:00.203Z,21.42
2018-04-11T11:34:00.191Z,21.40
2018-04-11T11:35:00.213Z,21.42
2018-04-11T11:36:00.174Z,21.40
2018-04-11T11:37:00.191Z,21.45
2018-04-11T11:38:00.179Z,21.46
2018-04-11T11:39:00.171Z,21.40
2018-04-11T11:40:00.157Z,21.45
2018-04-11T11:41:00.166Z,21.40
2018-04-11T11:42:00.168Z,21.43
2018-04-11T11:43:00.141Z,21.42
2018-04-11T11:44:00.142Z,21.46
2018-04-11T11:45:00.134Z,21.43
2018-04-11T11:46:00.165Z,21.43
2018-04-11T11:47:00.135Z,21.43
2018-04-11T11:48:00.127Z,21.40
2018-04-11T11:49:00.117Z,21.45
2018-04-11T11:50:00.115Z,21.46
2018-04-11T11:51:00.098Z,21.40
2018-04-11T11:52:00.139Z,21.43
2018-04-11T11:53:00.104Z,21.45
2018-04-11T11:54:00.095Z,21.40
2018-04-11T11:55:00.093Z,21.36
2018-04-11T11:56:00.099Z,21.42
2018-04-11T11:57:00.079Z,21.43
2018-04-11T11:58:00.091Z,21.40
2018-04-11T11:59:00.070Z,21.36
2018-04-11T12:00:00.067Z,21.37
2018-04-11T12:01:00.057Z,21.42
2018-04-11T12:02:00.068Z,21.43
2018-04-11T12:03:00.051Z,21.43
2018-04-11T12:04:00.062Z,21.43
2018-04-11T12:05:00.079Z,21.45
2018-04-11T12:06:00.035Z,21.43
2018-04-11T12:07:00.035Z,21.45
2018-04-11T12:08:00.022Z,21.45
2018-04-11T12:09:00.018Z,21.43
2018-04-11T12:10:00.025Z,21.38
2018-04-11T12:11:00.026Z,21.45
2018-04-11T12:12:00.008Z,21.43
2018-04-11T12:13:00.007Z,21.42
2018-04-11T12:14:00.011Z,21.48
2018-04-11T12:14:59.987Z,21.46
2018-04-11T12:16:00.020Z,21.48
2018-04-11T12:16:59.989Z,21.43
2018-04-11T12:17:59.977Z,21.48
2018-04-11T12:18:59.966Z,21.48
2018-04-11T12:19:59.982Z,21.38
2018-04-11T12:20:59.967Z,21.43
2018-04-11T12:21:59.961Z,21.45
2018-04-11T12:22:59.956Z,21.45
2018-04-11T12:23:59.942Z,21.43
2018-04-11T12:24:59.950Z,21.43
2018-04-11T12:25:59.942Z,21.45
2018-04-11T12:26:59.936Z,21.46
2018-04-11T12:27:59.936Z,21.46
2018-04-11T12:28:59.915Z,21.38
2018-04-11T12:29:59.915Z,21.49
2018-04-11T12:30:59.910Z,21.46
2018-04-11T12:31:59.945Z,21.48
2018-04-11T12:32:59.901Z,21.45
2018-04-11T12:33:59.891Z,21.43
2018-04-11T12:34:59.891Z,21.42
2018-04-11T12:35:59.892Z,21.48
2018-04-11T12:36:59.882Z,21.48
2018-04-11T12:37:59.875Z,21.43
2018-04-11T12:38:59.872Z,21.49
2018-04-11T12:39:59.872Z,21.48
2018-04-11T12:40:59.882Z,21.42
2018-04-11T12:41:59.862Z,21.42
2018-04-11T12:42:59.845Z,21.45
2018-04-11T12:43:59.859Z,21.43
2018-04-11T12:44:59.857Z,21.46
2018-04-11T12:45:59.831Z,21.49
2018-04-11T12:46:59.836Z,21.46
2018-04-11T12:47:59.825Z,21.48
2018-04-11T12:48:59.815Z,21.43
2018-04-11T12:49:59.808Z,21.42
2018-04-11T12:50:59.817Z,21.40
2018-04-11T12:51:59.811Z,21.38